Time;durP1;ratioP1;P1;durP2;ratioP2;P2;SDS_P1;SDS_P2;PMS_P1;PMS_P2;Temp;Humidity;BMP_temperature;BMP_pressure;BME280_temperature;BME280_humidity;BME280_pressure;Samples;Min_cycle;Max_cycle;Signal;HPM_P1;HPM_P2
2023/03/26 00:02:28;;;;;;;1.42;0.63;;;;;;;15.26;72.57;95854.88;5044466;28;20064;-53
2023/03/26 00:04:57;;;;;;;2.03;0.80;;;;;;;15.53;71.64;95850.66;5043302;28;20100;-56
2023/03/26 00:07:26;;;;;;;2.28;0.70;;;;;;;15.51;69.11;95836.72;5046520;28;20077;-50
2023/03/26 00:09:56;;;;;;;4.90;0.93;;;;;;;15.82;66.74;95838.25;5044718;28;20077;-50
2023/03/26 00:12:25;;;;;;;3.47;0.75;;;;;;;16.18;62.58;95835.44;5043956;28;20088;-55
2023/03/26 00:14:53;;;;;;;4.45;0.80;;;;;;;16.15;62.25;95841.16;5046665;28;20088;-51
2023/03/26 00:17:22;;;;;;;2.42;0.77;;;;;;;16.00;62.39;95837.75;5042688;28;20073;-52
2023/03/26 00:19:52;;;;;;;3.88;0.80;;;;;;;16.03;61.92;95840.03;5039793;28;20069;-51
2023/03/26 00:22:22;;;;;;;1.45;0.63;;;;;;;15.98;61.71;95823.84;5043799;28;20075;-51
2023/03/26 00:24:50;;;;;;;2.33;0.80;;;;;;;16.02;60.61;95825.91;5044461;28;20082;-50
2023/03/26 00:27:20;;;;;;;2.45;0.77;;;;;;;15.70;62.93;95829.97;5043253;28;20064;-51
2023/03/26 00:29:48;;;;;;;2.75;1.00;;;;;;;15.70;62.05;95829.97;5043737;28;20080;-53
2023/03/26 00:32:17;;;;;;;1.60;0.70;;;;;;;15.90;61.09;95830.97;5045645;28;20076;-52
2023/03/26 00:34:45;;;;;;;1.33;0.70;;;;;;;15.83;61.12;95831.94;5044243;28;20534;-52
2023/03/26 00:37:14;;;;;;;4.05;0.80;;;;;;;15.58;61.14;95829.63;5041682;28;20085;-53
2023/03/26 00:39:43;;;;;;;1.98;0.57;;;;;;;15.44;62.91;95825.22;5042872;28;20085;-53
2023/03/26 00:42:13;;;;;;;2.00;0.80;;;;;;;15.43;63.23;95834.19;5040910;28;20259;-53
2023/03/26 00:44:43;;;;;;;1.70;0.85;;;;;;;15.36;63.09;95834.13;5057190;28;20080;-53
2023/03/26 00:47:12;;;;;;;3.58;1.00;;;;;;;15.28;64.22;95828.97;5045416;28;20440;-51
2023/03/26 00:49:40;;;;;;;1.40;0.73;;;;;;;14.69;66.63;95829.94;5043766;28;20559;-53
2023/03/26 00:52:08;;;;;;;1.85;0.70;;;;;;;15.15;67.53;95818.19;5042704;28;20095;-48
2023/03/26 00:54:37;;;;;;;1.77;0.55;;;;;;;14.82;69.03;95829.25;5043442;28;20541;-51
2023/03/26 00:57:05;;;;;;;2.25;0.70;;;;;;;15.06;67.99;95820.13;5042382;28;20077;-53
2023/03/26 00:59:34;;;;;;;3.08;0.65;;;;;;;15.35;64.65;95824.53;5045825;28;20538;-48
2023/03/26 01:02:04;;;;;;;4.00;0.75;;;;;;;15.19;67.26;95820.28;5043604;28;20081;-53
2023/03/26 01:04:34;;;;;;;5.50;0.80;;;;;;;15.46;64.69;95820.53;5041735;28;20546;-49
2023/03/26 01:07:05;;;;;;;1.88;0.82;;;;;;;15.24;67.29;95819.69;5040662;28;20541;-49
2023/03/26 01:09:41;;;;;;;3.25;0.77;;;;;;;15.34;66.21;95822.88;5045210;28;20068;-49
2023/03/26 01:12:14;;;;;;;2.22;0.70;;;;;;;15.47;66.73;95813.38;5044239;28;20080;-55
2023/03/26 01:14:43;;;;;;;3.13;0.75;;;;;;;15.22;67.79;95813.78;5042649;28;20138;-52
2023/03/26 01:17:13;;;;;;;0.95;0.47;;;;;;;14.99;65.78;95805.16;5039906;28;20140;-51
2023/03/26 01:19:47;;;;;;;4.03;1.08;;;;;;;14.92;69.47;95811.22;5041852;28;20085;-53
2023/03/26 01:22:18;;;;;;;6.68;0.77;;;;;;;14.60;74.18;95807.16;5043432;28;20088;-50
2023/03/26 01:24:51;;;;;;;2.78;0.70;;;;;;;14.69;74.38;95807.88;5042421;28;20076;-48
2023/03/26 01:27:26;;;;;;;3.08;0.82;;;;;;;14.51;75.37;95815.41;5042771;28;20478;-53
2023/03/26 01:29:56;;;;;;;6.03;0.73;;;;;;;14.84;73.18;95819.28;5042394;28;20073;-55
2023/03/26 01:32:47;;;;;;;2.47;0.90;;;;;;;14.90;72.31;95820.34;5039672;28;20115;-48
2023/03/26 01:35:22;;;;;;;2.80;0.57;;;;;;;14.68;72.28;95816.84;5042661;28;20080;-54
2023/03/26 01:37:58;;;;;;;2.10;0.52;;;;;;;14.96;71.17;95819.63;5054592;28;20559;-54
2023/03/26 01:40:30;;;;;;;1.40;0.60;;;;;;;14.44;75.45;95815.28;5041673;28;20436;-51
2023/03/26 01:43:05;;;;;;;2.35;0.68;;;;;;;14.73;72.52;95801.19;5042851;28;20081;-55
2023/03/26 01:45:35;;;;;;;5.75;0.88;;;;;;;14.62;75.23;95801.66;5041597;28;20081;-52
2023/03/26 01:48:05;;;;;;;1.00;0.63;;;;;;;14.82;70.98;95800.06;5044871;28;20541;-54
2023/03/26 01:50:33;;;;;;;3.35;0.90;;;;;;;14.95;70.64;95796.75;5042271;28;20089;-48
2023/03/26 01:53:02;;;;;;;1.17;0.68;;;;;;;14.48;74.68;95801.47;5043105;28;20115;-51
2023/03/26 01:55:35;;;;;;;1.88;0.63;;;;;;;14.41;76.10;95797.91;5041814;28;20072;-50
2023/03/26 01:58:07;;;;;;;3.35;0.68;;;;;;;14.53;74.38;95797.50;5041305;28;20938;-51
2023/03/26 02:00:40;;;;;;;2.10;0.60;;;;;;;14.02;80.79;95785.78;5042421;28;20069;-49
2023/03/26 02:03:17;;;;;;;3.35;0.70;;;;;;;14.19;80.27;95783.75;5040417;28;21474;-51
2023/03/26 02:05:50;;;;;;;3.83;0.80;;;;;;;14.41;78.45;95786.47;5041005;28;20068;-49
2023/03/26 02:08:23;;;;;;;4.47;0.70;;;;;;;13.96;84.12;95793.63;5040337;28;20079;-50
2023/03/26 02:10:56;;;;;;;2.45;0.68;;;;;;;14.01;84.76;95784.13;5042011;28;20091;-53
2023/03/26 02:13:25;;;;;;;0.80;0.60;;;;;;;13.87;85.76;95789.44;5043075;28;20088;-52
2023/03/26 02:15:59;;;;;;;3.15;0.82;;;;;;;13.78;87.38;95791.31;5037785;28;20075;-53
2023/03/26 02:18:35;;;;;;;2.97;0.65;;;;;;;13.80;86.68;95786.69;5041778;28;20091;-55
2023/03/26 02:21:05;;;;;;;4.68;0.75;;;;;;;13.93;83.69;95783.38;5041861;28;20092;-53
2023/03/26 02:23:35;;;;;;;4.47;0.65;;;;;;;14.16;81.28;95780.66;5043091;28;20148;-53
2023/03/26 02:26:08;;;;;;;3.30;0.60;;;;;;;14.47;76.99;95777.78;5040689;28;20076;-53
2023/03/26 02:28:37;;;;;;;4.13;1.02;;;;;;;14.43;75.80;95768.56;5040662;28;20067;-50
2023/03/26 02:31:09;;;;;;;4.75;0.85;;;;;;;14.63;73.59;95767.00;5032376;28;20447;-55
2023/03/26 02:33:38;;;;;;;5.70;1.10;;;;;;;14.24;76.67;95773.41;5044522;28;20079;-51
2023/03/26 02:36:09;;;;;;;3.05;0.80;;;;;;;14.43;75.43;95771.22;5041065;28;20071;-49
2023/03/26 02:38:37;;;;;;;3.42;0.90;;;;;;;14.65;72.95;95772.09;5041573;28;20087;-56
2023/03/26 02:41:07;;;;;;;2.70;0.80;;;;;;;14.85;70.39;95761.72;5071352;28;20081;-53
2023/03/26 02:43:36;;;;;;;4.83;0.87;;;;;;;14.88;69.36;95759.50;5042439;28;20084;-52
2023/03/26 02:46:04;;;;;;;4.22;1.00;;;;;;;14.95;67.70;95749.78;5040948;28;20083;-55
2023/03/26 02:48:34;;;;;;;4.72;1.10;;;;;;;14.99;66.72;95754.69;5042179;28;20356;-52
2023/03/26 02:51:02;;;;;;;2.17;0.95;;;;;;;14.92;68.68;95751.97;5041154;28;20091;-54
2023/03/26 02:53:30;;;;;;;3.33;0.75;;;;;;;14.95;67.11;95744.47;5040533;28;20541;-51
2023/03/26 02:56:00;;;;;;;7.47;1.05;;;;;;;14.86;68.77;95747.41;5040275;28;20509;-54
2023/03/26 02:58:29;;;;;;;4.38;0.80;;;;;;;14.87;68.05;95752.56;5041773;28;20068;-51
2023/03/26 03:00:58;;;;;;;3.13;0.73;;;;;;;14.84;67.32;95750.28;5044471;28;20514;-50
2023/03/26 03:03:27;;;;;;;3.58;1.05;;;;;;;14.71;68.61;95744.81;5041638;28;21058;-54
2023/03/26 03:05:56;;;;;;;4.72;1.00;;;;;;;14.85;67.68;95738.63;5043622;28;20462;-53
2023/03/26 03:08:28;;;;;;;4.57;1.17;;;;;;;14.80;68.15;95745.53;5045874;28;20071;-53
2023/03/26 03:10:57;;;;;;;3.50;0.90;;;;;;;14.97;66.63;95741.63;5045120;28;20068;-53
2023/03/26 03:13:26;;;;;;;3.97;1.10;;;;;;;14.99;66.07;95736.13;5041735;28;20064;-51
2023/03/26 03:15:56;;;;;;;3.13;1.00;;;;;;;14.98;66.56;95731.84;5038361;28;20071;-52
2023/03/26 03:18:25;;;;;;;2.60;0.95;;;;;;;15.00;65.86;95730.59;5041192;28;20103;-54
2023/03/26 03:20:53;;;;;;;6.20;0.85;;;;;;;14.99;65.50;95726.31;5040267;28;20537;-50
2023/03/26 03:23:22;;;;;;;3.00;1.00;;;;;;;14.97;65.87;95720.41;5040389;28;20557;-51
2023/03/26 03:25:51;;;;;;;6.57;1.00;;;;;;;15.04;64.82;95712.50;5040260;28;20084;-50
2023/03/26 03:28:20;;;;;;;3.40;0.77;;;;;;;14.91;66.20;95714.00;5041679;28;20083;-55
2023/03/26 03:30:51;;;;;;;5.60;0.80;;;;;;;14.90;66.02;95709.72;5043024;28;20076;-51
2023/03/26 03:33:21;;;;;;;4.07;0.85;;;;;;;14.97;65.16;95701.81;5044982;28;20474;-54
2023/03/26 03:35:50;;;;;;;3.97;1.00;;;;;;;15.04;65.12;95693.91;5043368;28;20080;-53
2023/03/26 03:38:19;;;;;;;3.33;0.90;;;;;;;14.98;65.43;95689.34;5043342;28;20099;-51
2023/03/26 03:40:47;;;;;;;2.88;0.90;;;;;;;15.02;65.19;95688.75;5041408;28;20100;-49
2023/03/26 03:43:16;;;;;;;5.03;1.17;;;;;;;15.04;64.88;95684.09;5045089;28;20332;-50
2023/03/26 03:45:44;;;;;;;4.40;0.80;;;;;;;15.01;64.86;95673.03;5042424;28;20075;-54
2023/03/26 03:48:12;;;;;;;3.55;1.15;;;;;;;15.00;64.71;95680.16;5044363;28;20114;-55
2023/03/26 03:50:42;;;;;;;4.10;1.10;;;;;;;15.01;64.73;95675.69;5041212;28;20089;-54
2023/03/26 03:53:14;;;;;;;5.70;1.13;;;;;;;14.95;65.16;95682.59;5042768;28;20088;-55
2023/03/26 03:55:51;;;;;;;5.28;1.00;;;;;;;14.91;64.94;95683.97;5040083;28;20088;-53
2023/03/26 03:58:23;;;;;;;2.97;0.80;;;;;;;14.80;65.24;95684.50;5044730;28;20472;-54
2023/03/26 04:00:52;;;;;;;2.58;0.90;;;;;;;14.79;65.28;95686.31;5038192;28;20139;-52
2023/03/26 04:03:20;;;;;;;3.60;0.98;;;;;;;14.63;66.03;95679.44;5041841;28;20064;-53
2023/03/26 04:06:05;;;;;;;;;;;;;;;14.65;66.15;95681.88;5043828;28;20077;-54
2023/03/26 04:08:34;;;;;;;4.57;0.80;;;;;;;14.69;66.09;95672.53;5043601;28;19951;-55
2023/03/26 04:11:02;;;;;;;5.55;1.13;;;;;;;14.53;67.27;95678.91;5042703;28;20090;-52
2023/03/26 04:13:31;;;;;;;7.72;1.17;;;;;;;14.61;66.67;95675.31;5043030;28;20076;-58
2023/03/26 04:15:59;;;;;;;6.03;1.20;;;;;;;14.56;67.07;95672.41;5042049;28;20482;-51
2023/03/26 04:18:29;;;;;;;3.90;1.00;;;;;;;14.52;68.23;95681.75;5045477;28;20095;-53
2023/03/26 04:21:01;;;;;;;3.63;1.25;;;;;;;14.56;69.63;95680.38;5041242;28;20795;-52
2023/03/26 04:23:31;;;;;;;2.42;1.10;;;;;;;14.72;68.74;95666.84;5043573;28;20475;-49
2023/03/26 04:26:03;;;;;;;4.30;0.95;;;;;;;14.77;67.24;95667.13;5042940;28;20079;-52
2023/03/26 04:28:34;;;;;;;1.90;0.73;;;;;;;14.87;66.63;95656.19;5045433;28;20084;-51
2023/03/26 04:31:03;;;;;;;8.43;1.25;;;;;;;14.96;65.45;95653.16;5037812;28;20077;-53
2023/03/26 04:33:33;;;;;;;3.78;1.17;;;;;;;14.96;65.33;95649.69;5043775;28;20561;-49
2023/03/26 04:36:02;;;;;;;4.47;0.90;;;;;;;14.94;66.02;95654.41;5041400;28;20537;-51
2023/03/26 04:38:37;;;;;;;8.65;1.10;;;;;;;15.04;64.76;95656.72;5043544;28;20722;-48
2023/03/26 04:41:07;;;;;;;6.57;1.15;;;;;;;15.00;65.20;95658.09;5043081;28;20073;-50
2023/03/26 04:43:35;;;;;;;4.57;0.95;;;;;;;14.94;64.45;95652.56;5038745;28;20938;-54
2023/03/26 04:46:03;;;;;;;4.70;0.82;;;;;;;15.01;64.93;95655.28;5040310;28;20076;-51
2023/03/26 04:48:32;;;;;;;4.57;0.93;;;;;;;15.23;63.59;95649.91;5043905;28;20077;-53
2023/03/26 04:51:00;;;;;;;2.97;0.82;;;;;;;15.15;63.80;95643.75;5034838;28;20065;-56
2023/03/26 04:53:29;;;;;;;5.20;1.35;;;;;;;15.22;64.09;95645.63;5039442;28;20084;-53
2023/03/26 04:56:01;;;;;;;3.83;0.90;;;;;;;15.31;62.99;95637.31;5038403;28;20080;-56
2023/03/26 04:58:31;;;;;;;6.68;1.20;;;;;;;15.36;62.28;95637.53;5039671;28;20067;-51
2023/03/26 05:01:00;;;;;;;3.33;0.90;;;;;;;15.34;61.85;95639.56;5073672;28;20069;-52
2023/03/26 05:03:40;;;;;;;4.13;0.85;;;;;;;15.46;61.63;95633.72;5043054;28;20095;-53
2023/03/26 05:06:11;;;;;;;5.13;1.05;;;;;;;15.54;60.95;95625.59;5043131;28;20084;-51
2023/03/26 05:08:40;;;;;;;7.47;1.23;;;;;;;15.61;60.66;95626.44;5072305;28;20072;-48
2023/03/26 05:11:11;;;;;;;5.00;1.10;;;;;;;15.66;60.55;95622.22;5044186;28;20091;-55
2023/03/26 05:13:41;;;;;;;8.02;1.23;;;;;;;15.75;59.71;95616.72;5045727;28;20068;-53
2023/03/26 05:16:10;;;;;;;5.03;0.93;;;;;;;15.82;58.71;95604.28;5043845;28;20099;-55
2023/03/26 05:18:38;;;;;;;4.13;1.10;;;;;;;15.89;58.28;95611.25;5048096;28;20061;-50
2023/03/26 05:21:07;;;;;;;3.83;1.30;;;;;;;15.97;57.64;95604.16;5046039;28;20081;-53
2023/03/26 05:23:35;;;;;;;7.57;1.20;;;;;;;16.02;57.45;95607.03;5049035;28;20092;-56
2023/03/26 05:26:03;;;;;;;3.20;2.20;;;;;;;16.02;57.15;95604.38;5047427;28;20122;-51
2023/03/26 05:28:33;;;;;;;5.35;1.65;;;;;;;15.97;57.21;95598.84;5046016;28;20092;-52
2023/03/26 05:31:02;;;;;;;10.63;2.30;;;;;;;16.03;56.99;95600.69;5044490;28;20079;-53
2023/03/26 05:33:30;;;;;;;5.68;1.50;;;;;;;16.10;56.52;95596.19;5045654;28;20514;-51
2023/03/26 05:36:00;;;;;;;4.57;1.77;;;;;;;16.18;56.36;95595.22;5040918;28;20084;-49
2023/03/26 05:38:28;;;;;;;5.68;2.17;;;;;;;16.16;56.13;95584.75;5047503;28;20115;-49
2023/03/26 05:41:00;;;;;;;4.65;1.95;;;;;;;16.17;56.31;95588.25;5044372;28;20088;-52
2023/03/26 05:43:29;;;;;;;3.85;1.83;;;;;;;16.13;56.15;95582.50;5041634;28;20087;-53
2023/03/26 05:45:59;;;;;;;4.80;1.10;;;;;;;16.09;56.14;95570.63;5045773;28;21095;-51
2023/03/26 05:48:27;;;;;;;3.97;1.00;;;;;;;16.01;56.74;95568.16;5047769;28;20072;-51
2023/03/26 05:50:57;;;;;;;6.05;1.40;;;;;;;15.85;57.61;95564.81;5042306;28;20076;-55
2023/03/26 05:53:26;;;;;;;5.78;1.02;;;;;;;15.80;58.26;95561.16;5046744;28;20088;-51
2023/03/26 05:55:56;;;;;;;5.43;1.13;;;;;;;15.75;59.56;95552.94;5045571;28;20076;-52
2023/03/26 05:58:25;;;;;;;4.00;0.88;;;;;;;15.84;59.43;95551.75;5044679;28;20067;-51
2023/03/26 06:00:59;;;;;;;7.70;1.10;;;;;;;15.84;60.43;95547.25;5041490;28;20541;-52
2023/03/26 06:03:27;;;;;;;6.60;1.35;;;;;;;15.96;59.30;95554.63;5041097;28;20140;-49
2023/03/26 06:05:56;;;;;;;4.53;1.27;;;;;;;15.75;60.28;95545.78;5039712;28;20095;-53
2023/03/26 06:08:24;;;;;;;3.33;1.00;;;;;;;16.03;59.46;95547.50;5043305;28;20076;-53
2023/03/26 06:10:58;;;;;;;6.97;1.20;;;;;;;15.88;60.88;95543.16;5042088;28;20071;-52
2023/03/26 06:13:27;;;;;;;5.75;1.10;;;;;;;16.13;59.72;95539.94;5043182;28;20087;-50
2023/03/26 06:15:56;;;;;;;5.45;1.15;;;;;;;15.96;60.07;95539.50;5043949;28;20069;-51
2023/03/26 06:18:26;;;;;;;5.70;0.93;;;;;;;16.12;60.36;95533.81;5043350;28;20068;-52
2023/03/26 06:20:55;;;;;;;4.57;1.10;;;;;;;16.20;60.57;95531.97;5041116;28;20073;-53
2023/03/26 06:23:23;;;;;;;3.28;0.90;;;;;;;16.28;61.07;95521.97;5040621;28;20099;-54
2023/03/26 06:25:52;;;;;;;8.45;1.38;;;;;;;16.39;60.79;95523.22;5042563;28;20082;-52
2023/03/26 06:28:20;;;;;;;3.42;1.02;;;;;;;16.38;61.11;95517.06;5045983;28;20487;-55
2023/03/26 06:30:49;;;;;;;3.53;1.05;;;;;;;16.35;61.94;95516.66;5043715;28;20084;-50
2023/03/26 06:33:18;;;;;;;7.78;1.45;;;;;;;16.41;62.47;95509.69;5046063;28;20069;-48
2023/03/26 06:35:48;;;;;;;5.65;1.35;;;;;;;16.49;62.39;95509.50;5042542;28;20450;-53
2023/03/26 06:38:17;;;;;;;3.40;1.08;;;;;;;16.45;62.91;95497.63;5042942;28;20092;-53
2023/03/26 06:40:45;;;;;;;5.10;1.40;;;;;;;16.58;62.79;95503.75;5043908;28;20073;-51
2023/03/26 06:43:13;;;;;;;6.10;1.30;;;;;;;16.67;62.88;95501.72;5040804;28;20087;-51
2023/03/26 06:45:42;;;;;;;4.00;1.17;;;;;;;16.84;61.77;95505.63;5041918;28;20072;-51
2023/03/26 06:48:10;;;;;;;4.50;1.50;;;;;;;17.09;60.81;95504.94;5044115;28;20072;-51
2023/03/26 06:50:38;;;;;;;5.85;1.20;;;;;;;17.21;59.69;95495.31;5042671;28;20084;-54
2023/03/26 06:53:08;;;;;;;5.72;1.38;;;;;;;17.31;58.93;95493.00;5045947;28;20084;-54
2023/03/26 06:55:37;;;;;;;5.03;1.33;;;;;;;17.29;59.17;95483.59;5043112;28;20557;-50
2023/03/26 06:58:05;;;;;;;5.40;1.88;;;;;;;17.55;57.58;95478.16;5044434;28;20088;-54
2023/03/26 07:00:33;;;;;;;18.13;11.13;;;;;;;17.64;55.98;95485.91;5039805;28;20073;-51
2023/03/26 07:03:03;;;;;;;7.13;2.97;;;;;;;17.74;55.73;95480.94;4980142;28;23685;-53
2023/03/26 07:05:31;;;;;;;210.33;139.77;;;;;;;17.81;54.47;95473.75;5058558;28;20080;-56
2023/03/26 07:08:00;;;;;;;76.57;39.55;;;;;;;18.03;53.74;95474.22;5039934;28;20522;-54
2023/03/26 07:10:30;;;;;;;57.15;39.00;;;;;;;18.08;53.26;95465.59;5038907;28;20073;-51
2023/03/26 07:12:58;;;;;;;13.98;7.43;;;;;;;18.10;53.71;95458.16;5039990;28;20464;-54
2023/03/26 07:15:27;;;;;;;6.40;3.65;;;;;;;18.03;52.88;95456.38;5036620;28;20096;-51
2023/03/26 07:17:56;;;;;;;9.65;3.97;;;;;;;18.15;53.52;95455.69;5043609;28;20506;-53
2023/03/26 07:20:25;;;;;;;6.70;2.10;;;;;;;18.36;52.84;95449.97;5043873;28;20032;-54
2023/03/26 07:22:53;;;;;;;7.60;1.40;;;;;;;18.41;52.38;95450.13;5041221;28;20068;-56
2023/03/26 07:25:22;;;;;;;5.65;1.50;;;;;;;18.12;53.39;95448.09;5038547;28;20096;-55
2023/03/26 07:28:02;;;;;;;7.68;1.30;;;;;;;18.50;53.02;95440.00;5037880;28;20509;-52
2023/03/26 07:30:35;;;;;;;6.82;1.23;;;;;;;18.32;52.90;95440.75;5039082;28;20072;-53
2023/03/26 07:33:06;;;;;;;6.25;1.30;;;;;;;18.40;52.49;95439.66;5035941;28;20089;-56
2023/03/26 07:39:14;;;;;;;7.75;1.08;;;;;;;18.69;51.31;95422.97;4994383;28;20533;-51
2023/03/26 07:41:47;;;;;;;5.40;1.17;;;;;;;18.90;50.87;95413.75;5001572;28;20073;-57
2023/03/26 07:44:41;;;;;;;4.00;1.15;;;;;;;18.75;51.53;95413.28;5004423;28;20081;-51
2023/03/26 07:47:18;;;;;;;5.60;0.90;;;;;;;18.80;52.49;95407.28;4999832;28;20085;-53
2023/03/26 07:49:47;;;;;;;3.92;1.08;;;;;;;18.77;52.49;95413.06;5003006;28;20100;-53
2023/03/26 07:52:15;;;;;;;6.93;1.20;;;;;;;18.67;51.86;95410.88;5000449;28;20093;-54
2023/03/26 07:54:44;;;;;;;4.82;1.05;;;;;;;18.44;51.98;95407.00;5002833;28;20089;-51
2023/03/26 07:57:18;;;;;;;7.78;1.25;;;;;;;18.34;51.87;95404.00;5003235;28;20082;-50
2023/03/26 07:59:51;;;;;;;4.13;1.02;;;;;;;18.45;51.44;95402.47;5000524;28;20514;-52
2023/03/26 08:02:39;;;;;;;3.78;1.15;;;;;;;18.44;51.72;95396.31;5000008;28;20086;-54
2023/03/26 08:05:18;;;;;;;11.00;1.20;;;;;;;18.19;51.73;95385.63;4998085;28;20491;-52
2023/03/26 08:07:57;;;;;;;3.22;1.00;;;;;;;18.19;52.59;95377.63;5000665;28;20092;-51
2023/03/26 08:10:28;;;;;;;2.22;1.08;;;;;;;18.38;52.30;95356.34;5000034;28;20491;-57
2023/03/26 08:13:01;;;;;;;6.78;1.08;;;;;;;18.40;49.14;95346.25;5003436;28;20417;-52
2023/03/26 08:15:32;;;;;;;5.75;0.85;;;;;;;18.22;49.19;95344.38;4998288;28;20085;-52
2023/03/26 08:18:06;;;;;;;3.72;0.95;;;;;;;18.52;47.85;95335.66;5005711;28;20081;-53
2023/03/26 08:20:42;;;;;;;6.30;0.90;;;;;;;18.63;47.28;95334.91;5001719;28;20088;-54
2023/03/26 08:23:17;;;;;;;4.03;0.98;;;;;;;18.78;48.30;95342.56;5004867;28;20088;-52
2023/03/26 08:25:53;;;;;;;3.35;0.80;;;;;;;18.84;47.46;95347.03;4999614;28;20089;-51
2023/03/26 08:28:29;;;;;;;4.75;0.82;;;;;;;18.82;47.08;95346.44;5006080;28;20100;-50
2023/03/26 08:31:01;;;;;;;4.95;1.10;;;;;;;18.58;46.97;95337.44;5006067;28;20080;-51
2023/03/26 08:33:31;;;;;;;2.88;0.77;;;;;;;18.79;47.09;95341.53;5007206;28;20081;-51
2023/03/26 08:35:59;;;;;;;4.25;0.77;;;;;;;18.85;45.96;95321.94;5007021;28;20081;-54
2023/03/26 08:38:27;;;;;;;6.40;1.23;;;;;;;19.10;45.34;95317.31;5013023;28;20096;-52
2023/03/26 08:41:31;;;;;;;6.22;1.13;;;;;;;19.27;45.47;95312.16;5007614;28;20081;-52
2023/03/26 08:44:26;;;;;;;3.70;0.90;;;;;;;19.37;45.24;95312.44;5011330;28;20073;-49
2023/03/26 08:47:17;;;;;;;6.55;1.10;;;;;;;19.44;45.43;95306.97;5005527;28;20648;-53
2023/03/26 08:49:52;;;;;;;;;;;;;;;19.59;45.16;95301.22;5003949;28;20092;-53
2023/03/26 08:52:35;;;;;;;4.20;1.00;;;;;;;19.61;44.80;95297.28;5002441;28;19963;-52
2023/03/26 08:55:25;;;;;;;15.20;6.38;;;;;;;19.69;43.82;95285.44;4999073;28;20089;-52
2023/03/26 08:58:04;;;;;;;;;;;;;;;19.72;43.43;95281.47;5008256;28;20073;-58
2023/03/26 09:00:40;;;;;;;5.78;1.73;;;;;;;19.75;44.03;95281.00;5000853;28;19971;-55
2023/03/26 09:03:19;;;;;;;2.47;0.80;;;;;;;19.72;43.97;95281.47;5006769;28;20089;-51
2023/03/26 09:06:10;;;;;;;5.25;1.00;;;;;;;19.69;43.95;95280.09;4999125;28;20089;-50
2023/03/26 09:09:12;;;;;;;3.40;0.85;;;;;;;19.63;44.40;95286.34;5004691;28;20097;-51
2023/03/26 09:12:06;;;;;;;7.25;1.05;;;;;;;19.65;45.48;95286.97;4980820;28;20094;-53
2023/03/26 09:15:02;;;;;;;6.47;1.00;;;;;;;19.21;46.18;95294.34;5007826;28;20077;-50
2023/03/26 09:18:07;;;;;;;5.00;0.85;;;;;;;18.92;46.76;95296.78;5005698;28;20081;-47
2023/03/26 09:21:09;;;;;;;7.70;2.72;;;;;;;18.73;48.98;95287.97;5005672;28;20081;-51
2023/03/26 09:24:00;;;;;;;4.00;1.38;;;;;;;18.68;49.73;95293.13;5007530;28;20085;-49
2023/03/26 09:26:45;;;;;;;16.48;10.75;;;;;;;18.63;50.15;95294.88;5003557;28;20093;-56
2023/03/26 09:29:56;;;;;;;3.53;1.10;;;;;;;18.33;51.42;95303.59;5008044;28;20484;-52
2023/03/26 09:33:14;;;;;;;3.58;1.00;;;;;;;18.42;51.91;95296.13;5006746;28;20081;-49
2023/03/26 09:35:52;;;;;;;2.85;0.95;;;;;;;18.61;52.50;95283.59;4991599;28;20093;-51
2023/03/26 09:38:37;;;;;;;3.50;1.00;;;;;;;18.66;51.79;95278.41;5001005;28;20100;-50
2023/03/26 09:41:10;;;;;;;4.53;1.10;;;;;;;18.89;51.74;95272.38;5004611;28;20105;-53
2023/03/26 09:44:05;;;;;;;7.10;0.85;;;;;;;19.06;51.70;95265.34;4999473;28;20100;-51
2023/03/26 09:46:37;;;;;;;4.63;1.05;;;;;;;18.96;51.69;95271.25;5004779;28;20549;-54
2023/03/26 09:49:14;;;;;;;7.93;1.13;;;;;;;18.93;52.75;95276.25;4998496;28;20140;-54
2023/03/26 09:51:54;;;;;;;5.65;1.40;;;;;;;18.91;54.78;95270.31;5003517;28;20140;-48
2023/03/26 09:54:37;;;;;;;5.27;2.07;;;;;;;18.92;53.94;95263.91;5013435;28;20089;-52
2023/03/26 09:57:08;;;;;;;6.95;2.30;;;;;;;18.89;54.08;95246.50;5006845;28;20514;-49
2023/03/26 09:59:55;;;;;;;6.10;1.75;;;;;;;18.89;54.57;95259.84;5006358;28;20103;-54
2023/03/26 10:02:38;;;;;;;3.28;1.60;;;;;;;19.12;55.14;95251.09;5004321;28;20085;-47
2023/03/26 10:05:30;;;;;;;5.03;1.70;;;;;;;19.40;54.37;95244.31;5002067;28;20086;-54
2023/03/26 10:08:15;;;;;;;6.63;2.60;;;;;;;19.67;53.96;95245.53;5006681;28;20086;-53
2023/03/26 10:10:49;;;;;;;3.08;1.42;;;;;;;19.62;54.10;95248.06;5011806;28;20088;-48
2023/03/26 10:13:26;;;;;;;2.53;1.20;;;;;;;19.83;54.36;95241.38;5003851;28;20085;-52
2023/03/26 10:16:07;;;;;;;5.93;2.03;;;;;;;19.59;52.78;95250.41;5004967;28;20082;-48
2023/03/26 10:18:45;;;;;;;6.80;1.90;;;;;;;19.49;52.64;95253.63;5008333;28;20139;-49
2023/03/26 10:21:19;;;;;;;10.32;5.40;;;;;;;19.27;53.47;95248.03;5006739;28;20079;-55
2023/03/26 10:23:59;;;;;;;5.68;2.90;;;;;;;19.34;52.67;95242.53;5009751;28;20093;-49
2023/03/26 10:26:54;;;;;;;3.55;1.60;;;;;;;19.77;51.42;95218.22;5002440;28;20089;-53
2023/03/26 10:30:12;;;;;;;5.18;1.45;;;;;;;19.27;52.14;95226.63;5002375;28;20578;-53
2023/03/26 10:32:47;;;;;;;4.95;1.17;;;;;;;19.59;51.28;95223.66;4999874;28;20089;-48
2023/03/26 10:35:28;;;;;;;3.40;1.15;;;;;;;19.19;52.86;95235.78;5007641;28;20089;-50
2023/03/26 10:38:05;;;;;;;5.35;1.50;;;;;;;19.13;51.57;95230.53;5003252;28;20086;-49
2023/03/26 10:40:41;;;;;;;6.47;1.77;;;;;;;19.43;52.05;95225.94;5006657;28;20080;-50
2023/03/26 10:43:26;;;;;;;4.38;2.20;;;;;;;19.81;51.34;95213.22;4998669;28;20159;-52
2023/03/26 10:46:30;;;;;;;8.93;1.40;;;;;;;20.06;49.04;95223.66;4999864;28;20089;-50
2023/03/26 10:49:42;;;;;;;5.88;1.55;;;;;;;20.07;49.86;95212.75;4945261;28;20086;-50
2023/03/26 10:52:14;;;;;;;7.78;1.75;;;;;;;19.86;49.22;95222.19;4962540;28;20114;-53
2023/03/26 10:54:51;;;;;;;4.05;1.40;;;;;;;19.81;50.27;95240.78;4965707;28;20508;-53
2023/03/26 10:57:28;;;;;;;5.03;1.20;;;;;;;19.71;51.53;95237.06;4985554;28;20086;-49
2023/03/26 11:00:02;;;;;;;5.43;1.30;;;;;;;19.74;51.67;95236.59;5000025;28;20092;-55
2023/03/26 11:02:31;;;;;;;7.05;1.20;;;;;;;19.30;53.36;95239.50;4998356;28;20112;-57
2023/03/26 11:05:14;;;;;;;5.85;1.23;;;;;;;19.14;55.07;95240.19;5006037;28;20078;-54
2023/03/26 11:07:50;;;;;;;3.35;1.08;;;;;;;18.82;58.08;95237.72;5001403;28;20089;-57
2023/03/26 11:10:36;;;;;;;8.05;1.88;;;;;;;18.92;62.33;95213.16;5000012;28;20085;-51
2023/03/26 11:13:13;;;;;;;4.65;1.63;;;;;;;18.90;65.85;95221.41;5001823;28;20088;-54
2023/03/26 11:15:46;;;;;;;3.80;1.00;;;;;;;18.89;68.66;95217.13;5000490;28;20089;-55
2023/03/26 11:18:19;;;;;;;3.70;1.05;;;;;;;18.76;70.38;95213.81;5001853;28;20093;-53
2023/03/26 11:20:52;;;;;;;13.88;5.53;;;;;;;18.34;73.24;95198.50;4997749;28;20088;-50
2023/03/26 11:23:34;;;;;;;6.35;1.45;;;;;;;18.54;73.61;95190.22;5002634;28;20085;-51
2023/03/26 11:26:08;;;;;;;5.10;1.08;;;;;;;18.55;72.12;95189.19;4997845;28;20092;-55
2023/03/26 11:28:48;;;;;;;4.60;0.98;;;;;;;18.05;71.92;95202.72;4999746;28;20108;-53
2023/03/26 11:31:48;;;;;;;4.67;1.07;;;;;;;18.24;71.95;95183.00;5005455;28;20080;-53
2023/03/26 11:34:20;;;;;;;2.25;1.00;;;;;;;18.25;72.59;95189.97;5008940;28;20095;-49
2023/03/26 11:36:51;;;;;;;3.75;0.60;;;;;;;18.40;70.05;95183.41;5000341;28;20089;-50
2023/03/26 11:39:23;;;;;;;3.20;0.95;;;;;;;18.81;67.69;95190.72;5001320;28;20086;-53
2023/03/26 11:41:55;;;;;;;5.07;0.98;;;;;;;18.41;68.57;95180.53;5001390;28;20185;-51
2023/03/26 11:44:26;;;;;;;2.20;0.80;;;;;;;18.63;70.04;95188.88;5000904;28;20070;-54
2023/03/26 11:46:57;;;;;;;;;;;;;;;18.68;69.00;95191.66;5001378;28;20077;-51
2023/03/26 11:49:26;;;;;;;4.43;0.95;;;;;;;18.40;69.60;95199.44;5003137;28;19960;-50
2023/03/26 11:51:54;;;;;;;1.75;0.43;;;;;;;18.24;71.01;95203.53;5006944;28;20105;-52
2023/03/26 11:54:24;;;;;;;1.97;0.83;;;;;;;18.54;67.82;95194.75;5015062;28;20141;-52
2023/03/26 11:56:54;;;;;;;1.98;0.60;;;;;;;18.96;64.41;95188.44;5000209;28;20089;-54
2023/03/26 11:59:36;;;;;;;3.85;0.68;;;;;;;18.36;64.95;95199.06;5004495;28;20096;-53
2023/03/26 12:02:24;;;;;;;0.70;0.50;;;;;;;18.49;67.57;95176.75;5004723;28;20093;-50
2023/03/26 12:05:07;;;;;;;0.55;0.32;;;;;;;18.49;67.32;95158.06;5009576;28;20101;-53
2023/03/26 12:07:36;;;;;;;1.38;0.47;;;;;;;18.93;59.45;95159.50;5038496;28;20076;-49
2023/03/26 12:10:07;;;;;;;0.50;0.35;;;;;;;19.08;62.28;95153.72;5006939;28;20087;-55